Time,TemperatureF,DewpointF,PressureIn,WindDirection,WindDirectionDegrees,WindSpeedMPH,WindSpeedGustMPH,Humidity,HourlyPrecipIn,Conditions,Clouds,dailyrainin,SoftwareType,DateUTC
2013-09-15 00:03:00,-999.0,-99.9,-100.00,South,182,0.0,1.0,-999,-99.99,,,-99.99,,2013-09-15 04:03:00,
2013-09-15 00:14:00,51.0,49.0,-100.00,South,182,0.0,1.0,92,0.00,,,0.00,,2013-09-15 04:14:00,
2013-09-15 00:24:00,51.0,49.0,-100.00,South,182,0.0,1.0,92,0.00,,,0.00,,2013-09-15 04:24:00,
2013-09-15 00:43:00,52.0,49.0,-100.00,ENE,75,4.0,6.0,90,0.00,,,0.00,,2013-09-15 04:43:00,
2013-09-15 00:54:00,51.0,48.0,-100.00,NW,326,2.0,3.0,90,0.00,,,0.00,,2013-09-15 04:54:00,
2013-09-15 01:13:00,51.0,49.0,-100.00,West,271,0.0,0.0,92,0.00,,,0.00,,2013-09-15 05:13:00,
2013-09-15 01:23:00,51.0,49.0,-100.00,West,271,0.0,0.0,92,0.00,,,0.00,,2013-09-15 05:23:00,
2013-09-15 01:52:00,49.0,48.0,-100.00,NNW,332,0.0,0.0,94,0.00,,,0.00,,2013-09-15 05:52:00,
2013-09-15 02:12:00,48.0,47.0,-100.00,North,350,0.0,0.0,94,0.00,,,0.00,,2013-09-15 06:12:00,
2013-09-15 02:22:00,48.0,47.0,-100.00,North,350,0.0,0.0,94,0.00,,,0.00,,2013-09-15 06:22:00,
2013-09-15 02:42:00,48.0,47.0,-100.00,NNW,333,0.0,0.0,95,0.00,,,0.00,,2013-09-15 06:42:00,
2013-09-15 02:52:00,48.0,47.0,-100.00,North,4,0.0,0.0,95,0.00,,,0.00,,2013-09-15 06:52:00,
2013-09-15 03:11:00,48.0,47.0,-100.00,North,350,0.0,0.0,95,0.00,,,0.00,,2013-09-15 07:11:00,
2013-09-15 03:22:00,48.0,47.0,-100.00,North,350,0.0,0.0,95,0.00,,,0.00,,2013-09-15 07:22:00,
2013-09-15 03:52:00,47.0,45.0,-100.00,NNW,347,0.0,0.0,95,0.00,,,0.00,,2013-09-15 07:52:00,
2013-09-15 04:11:00,47.0,46.0,-100.00,South,169,0.0,0.0,96,0.00,,,0.00,,2013-09-15 08:11:00,
2013-09-15 04:22:00,47.0,46.0,-100.00,South,169,0.0,0.0,96,0.00,,,0.00,,2013-09-15 08:22:00,
2013-09-15 04:43:00,47.0,45.0,-100.00,South,169,0.0,0.0,95,0.00,,,0.00,,2013-09-15 08:43:00,
2013-09-15 04:50:00,45.0,44.0,-100.00,South,171,0.0,0.0,95,0.00,,,0.00,,2013-09-15 08:50:00,
2013-09-15 04:52:00,46.0,45.0,-100.00,South,169,0.0,0.0,95,0.00,,,0.00,,2013-09-15 08:52:00,
2013-09-15 05:02:00,46.0,45.0,-100.00,South,169,0.0,0.0,95,0.00,,,0.00,,2013-09-15 09:02:00,
2013-09-15 05:22:00,46.0,45.0,-100.00,South,169,0.0,0.0,95,0.00,,,0.00,,2013-09-15 09:22:00,
2013-09-15 05:44:00,45.0,44.0,-100.00,South,171,0.0,0.0,95,0.00,,,0.00,,2013-09-15 09:44:00,
2013-09-15 06:23:00,46.0,45.0,-100.00,South,171,0.0,0.0,96,0.00,,,0.00,,2013-09-15 10:23:00,
2013-09-15 06:53:00,45.0,44.0,-100.00,NW,312,0.0,0.0,96,0.00,,,0.00,,2013-09-15 10:53:00,
2013-09-15 07:12:00,45.0,44.0,-100.00,NNW,336,0.0,0.0,96,0.00,,,0.00,,2013-09-15 11:12:00,
2013-09-15 07:22:00,45.0,44.0,-100.00,NNW,336,0.0,0.0,96,0.00,,,0.00,,2013-09-15 11:22:00,
2013-09-15 07:42:00,45.0,44.0,-100.00,NNW,339,0.0,0.0,96,0.00,,,0.00,,2013-09-15 11:42:00,
2013-09-15 07:52:00,44.0,43.0,-100.00,NNW,332,0.0,0.0,96,0.00,,,0.00,,2013-09-15 11:52:00,
2013-09-15 08:12:00,45.0,44.0,-100.00,NNW,335,0.0,0.0,96,0.00,,,0.00,,2013-09-15 12:12:00,
2013-09-15 08:21:00,45.0,44.0,-100.00,NNW,335,0.0,0.0,96,0.00,,,0.00,,2013-09-15 12:21:00,
2013-09-15 08:42:00,47.0,46.0,-100.00,NNW,335,0.0,0.0,96,0.00,,,0.00,,2013-09-15 12:42:00,
2013-09-15 08:52:00,49.0,47.0,-100.00,NNW,347,0.0,0.0,93,0.00,,,0.00,,2013-09-15 12:52:00,
2013-09-15 09:22:00,51.0,49.0,-100.00,NNW,346,1.0,2.0,91,0.00,,,0.00,,2013-09-15 13:22:00,
2013-09-15 09:42:00,53.0,50.0,-100.00,North,349,2.0,3.0,89,0.00,,,0.00,,2013-09-15 13:42:00,
2013-09-15 09:52:00,55.0,50.0,-100.00,NNE,21,2.0,3.0,83,0.00,,,0.00,,2013-09-15 13:52:00,
2013-09-15 10:22:00,58.0,51.0,-100.00,East,83,1.0,2.0,77,0.00,,,0.00,,2013-09-15 14:22:00,
2013-09-15 15:22:00,72.0,55.0,-100.00,South,178,12.0,16.0,54,0.00,,,0.00,,2013-09-15 19:22:00,
2013-09-15 15:42:00,73.0,55.0,-100.00,SSE,165,9.0,11.0,54,0.00,,,0.00,,2013-09-15 19:42:00,
2013-09-15 15:52:00,72.0,55.0,-100.00,South,179,9.0,11.0,56,0.00,,,0.00,,2013-09-15 19:52:00,
2013-09-15 16:11:00,72.0,55.0,-100.00,South,172,11.0,13.0,55,0.00,,,0.00,,2013-09-15 20:11:00,
2013-09-15 16:22:00,72.0,55.0,-100.00,South,172,11.0,13.0,55,0.00,,,0.00,,2013-09-15 20:22:00,
2013-09-15 16:32:00,74.0,56.0,-100.00,SSE,162,10.0,12.0,53,0.00,,,0.00,,2013-09-15 20:32:00,
2013-09-15 16:42:00,74.0,55.0,-100.00,SSE,157,7.0,10.0,53,0.00,,,0.00,,2013-09-15 20:42:00,
2013-09-15 16:53:00,73.0,56.0,-100.00,SSE,165,9.0,11.0,55,0.00,,,0.00,,2013-09-15 20:53:00,
2013-09-15 17:02:00,73.0,56.0,-100.00,SSE,165,9.0,11.0,55,0.00,,,0.00,,2013-09-15 21:02:00,
2013-09-15 17:22:00,74.0,56.0,-100.00,SSE,162,10.0,12.0,53,0.00,,,0.00,,2013-09-15 21:22:00,
2013-09-15 17:54:00,74.0,55.0,-100.00,South,185,9.0,12.0,53,0.00,,,0.00,,2013-09-15 21:54:00,
2013-09-15 18:04:00,74.0,55.0,-100.00,South,185,9.0,12.0,53,0.00,,,0.00,,2013-09-15 22:04:00,
2013-09-15 18:23:00,74.0,56.0,-100.00,South,186,9.0,13.0,53,0.00,,,0.00,,2013-09-15 22:23:00,
2013-09-15 18:44:00,73.0,57.0,-100.00,South,172,8.0,10.0,57,0.00,,,0.00,,2013-09-15 22:44:00,
2013-09-15 18:51:00,70.0,58.0,-100.00,South,174,7.0,9.0,66,0.00,,,0.00,,2013-09-15 22:51:00,
2013-09-15 18:53:00,72.0,58.0,-100.00,South,179,9.0,12.0,60,0.00,,,0.00,,2013-09-15 22:53:00,
2013-09-15 19:12:00,72.0,58.0,-100.00,South,172,6.0,7.0,63,0.00,,,0.00,,2013-09-15 23:12:00,
2013-09-15 19:22:00,72.0,58.0,-100.00,South,172,6.0,7.0,63,0.00,,,0.00,,2013-09-15 23:22:00,
2013-09-15 19:42:00,70.0,58.0,-100.00,South,174,7.0,9.0,66,0.00,,,0.00,,2013-09-15 23:42:00,
2013-09-15 20:42:00,67.0,58.0,-100.00,South,179,6.0,7.0,71,0.00,,,0.00,,2013-09-16 00:42:00,
2013-09-15 20:52:00,67.0,58.0,-100.00,South,185,6.0,9.0,73,0.00,,,0.00,,2013-09-16 00:52:00,
2013-09-15 21:12:00,66.0,58.0,-100.00,South,178,7.0,8.0,74,0.00,,,0.00,,2013-09-16 01:12:00,
2013-09-15 21:21:00,66.0,58.0,-100.00,South,178,7.0,8.0,74,0.00,,,0.00,,2013-09-16 01:21:00,
2013-09-15 21:42:00,65.0,58.0,-100.00,South,176,5.0,6.0,77,0.00,,,0.00,,2013-09-16 01:42:00,
2013-09-15 22:22:00,64.0,58.0,-100.00,South,178,5.0,6.0,79,0.00,,,0.00,,2013-09-16 02:22:00,
2013-09-15 22:42:00,64.0,57.0,-100.00,South,185,5.0,6.0,79,0.00,,,0.00,,2013-09-16 02:42:00,
2013-09-15 22:52:00,64.0,57.0,-100.00,South,186,5.0,6.0,78,0.00,,,0.00,,2013-09-16 02:52:00,
2013-09-15 23:02:00,64.0,57.0,-100.00,South,186,5.0,6.0,78,0.00,,,0.00,,2013-09-16 03:02:00,
2013-09-15 23:23:00,64.0,57.0,-100.00,SSW,195,4.0,7.0,78,0.00,,,0.00,,2013-09-16 03:23:00,
2013-09-15 23:45:00,65.0,57.0,-100.00,South,189,4.0,6.0,77,0.00,,,0.00,,2013-09-16 03:45:00,
2013-09-15 23:55:00,65.0,57.0,-100.00,SSW,195,5.0,7.0,77,0.00,,,0.00,,2013-09-16 03:55:00,